sensor_id;sensor_type;location;lat;lon;timestamp;P1;durP1;ratioP1;P2;durP2;ratioP2
69754;SDS011;57023;52.218;5.158;2023-04-15T00:02:13;15.15;;;7.88;;
69754;SDS011;57023;52.218;5.158;2023-04-15T00:04:46;14.90;;;7.75;;
69754;SDS011;57023;52.218;5.158;2023-04-15T00:07:12;13.15;;;8.10;;
69754;SDS011;57023;52.218;5.158;2023-04-15T00:09:37;14.27;;;8.30;;
69754;SDS011;57023;52.218;5.158;2023-04-15T00:12:04;10.32;;;7.50;;
69754;SDS011;57023;52.218;5.158;2023-04-15T00:14:32;12.85;;;7.72;;
69754;SDS011;57023;52.218;5.158;2023-04-15T00:16:58;11.60;;;7.93;;
69754;SDS011;57023;52.218;5.158;2023-04-15T00:19:24;11.60;;;7.88;;
69754;SDS011;57023;52.218;5.158;2023-04-15T00:21:50;11.93;;;7.70;;
69754;SDS011;57023;52.218;5.158;2023-04-15T00:24:16;12.80;;;7.95;;
69754;SDS011;57023;52.218;5.158;2023-04-15T00:26:41;10.68;;;7.22;;
69754;SDS011;57023;52.218;5.158;2023-04-15T00:29:06;12.73;;;7.70;;
69754;SDS011;57023;52.218;5.158;2023-04-15T00:31:32;11.23;;;7.07;;
69754;SDS011;57023;52.218;5.158;2023-04-15T00:33:57;13.43;;;7.40;;
69754;SDS011;57023;52.218;5.158;2023-04-15T00:36:23;11.00;;;7.03;;
69754;SDS011;57023;52.218;5.158;2023-04-15T00:38:49;10.52;;;7.63;;
69754;SDS011;57023;52.218;5.158;2023-04-15T00:41:15;13.02;;;7.40;;
69754;SDS011;57023;52.218;5.158;2023-04-15T00:43:40;11.77;;;7.43;;
69754;SDS011;57023;52.218;5.158;2023-04-15T00:46:06;13.82;;;7.35;;
69754;SDS011;57023;52.218;5.158;2023-04-15T00:48:32;10.38;;;7.53;;
69754;SDS011;57023;52.218;5.158;2023-04-15T00:50:57;11.75;;;7.28;;
69754;SDS011;57023;52.218;5.158;2023-04-15T00:53:23;11.98;;;7.90;;
69754;SDS011;57023;52.218;5.158;2023-04-15T00:55:48;10.48;;;7.85;;
69754;SDS011;57023;52.218;5.158;2023-04-15T00:58:16;11.50;;;7.85;;
69754;SDS011;57023;52.218;5.158;2023-04-15T01:00:43;12.93;;;7.22;;
69754;SDS011;57023;52.218;5.158;2023-04-15T01:03:08;10.43;;;6.73;;
69754;SDS011;57023;52.218;5.158;2023-04-15T01:05:34;13.35;;;7.60;;
69754;SDS011;57023;52.218;5.158;2023-04-15T01:07:59;10.88;;;7.43;;
69754;SDS011;57023;52.218;5.158;2023-04-15T01:10:25;11.25;;;7.13;;
69754;SDS011;57023;52.218;5.158;2023-04-15T01:12:57;11.73;;;7.15;;
69754;SDS011;57023;52.218;5.158;2023-04-15T01:15:22;13.80;;;7.40;;
69754;SDS011;57023;52.218;5.158;2023-04-15T01:17:48;12.73;;;7.78;;
69754;SDS011;57023;52.218;5.158;2023-04-15T01:20:13;11.85;;;7.85;;
69754;SDS011;57023;52.218;5.158;2023-04-15T01:22:39;14.38;;;7.85;;
69754;SDS011;57023;52.218;5.158;2023-04-15T01:25:10;12.33;;;7.93;;
69754;SDS011;57023;52.218;5.158;2023-04-15T01:27:37;12.07;;;7.70;;
69754;SDS011;57023;52.218;5.158;2023-04-15T01:30:05;11.65;;;7.95;;
69754;SDS011;57023;52.218;5.158;2023-04-15T01:32:31;14.80;;;7.95;;
69754;SDS011;57023;52.218;5.158;2023-04-15T01:34:57;14.68;;;8.20;;
69754;SDS011;57023;52.218;5.158;2023-04-15T01:37:22;12.88;;;7.70;;
69754;SDS011;57023;52.218;5.158;2023-04-15T01:39:54;13.20;;;7.80;;
69754;SDS011;57023;52.218;5.158;2023-04-15T01:42:21;13.07;;;7.43;;
69754;SDS011;57023;52.218;5.158;2023-04-15T01:44:46;14.02;;;7.70;;
69754;SDS011;57023;52.218;5.158;2023-04-15T01:47:11;10.75;;;7.38;;
69754;SDS011;57023;52.218;5.158;2023-04-15T01:49:37;14.05;;;7.78;;
69754;SDS011;57023;52.218;5.158;2023-04-15T01:52:02;13.35;;;8.00;;
69754;SDS011;57023;52.218;5.158;2023-04-15T01:54:33;11.95;;;7.22;;
69754;SDS011;57023;52.218;5.158;2023-04-15T01:56:59;13.75;;;7.55;;
69754;SDS011;57023;52.218;5.158;2023-04-15T01:59:24;11.93;;;7.38;;
69754;SDS011;57023;52.218;5.158;2023-04-15T02:01:49;13.15;;;7.35;;
69754;SDS011;57023;52.218;5.158;2023-04-15T02:04:14;13.88;;;7.80;;
69754;SDS011;57023;52.218;5.158;2023-04-15T02:06:43;11.63;;;7.30;;
69754;SDS011;57023;52.218;5.158;2023-04-15T02:09:11;15.48;;;7.57;;
69754;SDS011;57023;52.218;5.158;2023-04-15T02:11:36;12.85;;;7.53;;
69754;SDS011;57023;52.218;5.158;2023-04-15T02:14:02;12.50;;;7.38;;
69754;SDS011;57023;52.218;5.158;2023-04-15T02:16:29;11.82;;;7.53;;
69754;SDS011;57023;52.218;5.158;2023-04-15T02:18:55;10.73;;;6.97;;
69754;SDS011;57023;52.218;5.158;2023-04-15T02:21:20;12.88;;;7.53;;
69754;SDS011;57023;52.218;5.158;2023-04-15T02:23:49;11.23;;;7.28;;
69754;SDS011;57023;52.218;5.158;2023-04-15T02:26:15;12.73;;;7.28;;
69754;SDS011;57023;52.218;5.158;2023-04-15T02:28:40;11.50;;;7.57;;
69754;SDS011;57023;52.218;5.158;2023-04-15T02:31:06;12.73;;;7.15;;
69754;SDS011;57023;52.218;5.158;2023-04-15T02:33:32;12.18;;;7.15;;
69754;SDS011;57023;52.218;5.158;2023-04-15T02:35:57;11.43;;;7.32;;
69754;SDS011;57023;52.218;5.158;2023-04-15T02:38:23;11.25;;;7.20;;
69754;SDS011;57023;52.218;5.158;2023-04-15T02:40:48;11.55;;;7.20;;
69754;SDS011;57023;52.218;5.158;2023-04-15T02:43:14;11.32;;;7.10;;
69754;SDS011;57023;52.218;5.158;2023-04-15T02:45:41;14.07;;;7.40;;
69754;SDS011;57023;52.218;5.158;2023-04-15T02:48:07;13.10;;;8.18;;
69754;SDS011;57023;52.218;5.158;2023-04-15T02:50:33;13.25;;;7.57;;
69754;SDS011;57023;52.218;5.158;2023-04-15T02:52:58;11.73;;;7.63;;
69754;SDS011;57023;52.218;5.158;2023-04-15T02:55:25;12.40;;;7.27;;
69754;SDS011;57023;52.218;5.158;2023-04-15T02:57:50;14.35;;;7.53;;
69754;SDS011;57023;52.218;5.158;2023-04-15T03:00:16;12.02;;;7.60;;
69754;SDS011;57023;52.218;5.158;2023-04-15T03:02:41;12.27;;;7.10;;
69754;SDS011;57023;52.218;5.158;2023-04-15T03:05:10;11.00;;;7.10;;
69754;SDS011;57023;52.218;5.158;2023-04-15T03:07:36;12.68;;;7.35;;
69754;SDS011;57023;52.218;5.158;2023-04-15T03:10:01;10.80;;;7.20;;
69754;SDS011;57023;52.218;5.158;2023-04-15T03:12:27;11.80;;;7.78;;
69754;SDS011;57023;52.218;5.158;2023-04-15T03:14:54;12.70;;;7.10;;
69754;SDS011;57023;52.218;5.158;2023-04-15T03:17:19;14.02;;;7.35;;
69754;SDS011;57023;52.218;5.158;2023-04-15T03:19:48;13.18;;;7.55;;
69754;SDS011;57023;52.218;5.158;2023-04-15T03:22:13;12.90;;;7.15;;
69754;SDS011;57023;52.218;5.158;2023-04-15T03:24:38;12.38;;;7.50;;
69754;SDS011;57023;52.218;5.158;2023-04-15T03:27:04;13.73;;;8.00;;
69754;SDS011;57023;52.218;5.158;2023-04-15T03:29:31;12.35;;;7.13;;
69754;SDS011;57023;52.218;5.158;2023-04-15T03:31:59;13.48;;;7.32;;
69754;SDS011;57023;52.218;5.158;2023-04-15T03:34:25;13.25;;;7.70;;
69754;SDS011;57023;52.218;5.158;2023-04-15T03:36:50;12.13;;;7.45;;
69754;SDS011;57023;52.218;5.158;2023-04-15T03:39:16;10.85;;;7.10;;
69754;SDS011;57023;52.218;5.158;2023-04-15T03:41:41;12.43;;;7.47;;
69754;SDS011;57023;52.218;5.158;2023-04-15T03:44:07;12.15;;;7.32;;
69754;SDS011;57023;52.218;5.158;2023-04-15T03:46:32;11.88;;;7.00;;
69754;SDS011;57023;52.218;5.158;2023-04-15T03:49:00;11.68;;;6.95;;
69754;SDS011;57023;52.218;5.158;2023-04-15T03:51:26;14.68;;;7.50;;
69754;SDS011;57023;52.218;5.158;2023-04-15T03:53:51;16.73;;;7.45;;
69754;SDS011;57023;52.218;5.158;2023-04-15T03:56:16;14.50;;;7.40;;
69754;SDS011;57023;52.218;5.158;2023-04-15T03:58:42;11.93;;;7.68;;
69754;SDS011;57023;52.218;5.158;2023-04-15T04:01:07;10.88;;;7.30;;
69754;SDS011;57023;52.218;5.158;2023-04-15T04:03:32;12.70;;;7.88;;
69754;SDS011;57023;52.218;5.158;2023-04-15T04:05:58;14.85;;;8.10;;
69754;SDS011;57023;52.218;5.158;2023-04-15T04:08:23;14.60;;;8.35;;
69754;SDS011;57023;52.218;5.158;2023-04-15T04:10:49;16.75;;;8.82;;
69754;SDS011;57023;52.218;5.158;2023-04-15T04:13:14;13.32;;;8.50;;
69754;SDS011;57023;52.218;5.158;2023-04-15T04:15:40;12.80;;;7.38;;
69754;SDS011;57023;52.218;5.158;2023-04-15T04:18:06;12.43;;;8.27;;
69754;SDS011;57023;52.218;5.158;2023-04-15T04:20:31;15.65;;;8.40;;
69754;SDS011;57023;52.218;5.158;2023-04-15T04:22:57;12.30;;;7.85;;
69754;SDS011;57023;52.218;5.158;2023-04-15T04:25:23;12.80;;;7.88;;
69754;SDS011;57023;52.218;5.158;2023-04-15T04:27:48;13.15;;;8.52;;
69754;SDS011;57023;52.218;5.158;2023-04-15T04:30:14;13.10;;;8.65;;
69754;SDS011;57023;52.218;5.158;2023-04-15T04:32:43;13.48;;;8.77;;
69754;SDS011;57023;52.218;5.158;2023-04-15T04:35:11;13.55;;;8.10;;
69754;SDS011;57023;52.218;5.158;2023-04-15T04:37:36;14.68;;;9.00;;
69754;SDS011;57023;52.218;5.158;2023-04-15T04:40:02;13.68;;;8.68;;
69754;SDS011;57023;52.218;5.158;2023-04-15T04:42:28;13.55;;;8.95;;
69754;SDS011;57023;52.218;5.158;2023-04-15T04:44:54;15.40;;;8.90;;
69754;SDS011;57023;52.218;5.158;2023-04-15T04:47:19;13.50;;;9.20;;
69754;SDS011;57023;52.218;5.158;2023-04-15T04:49:44;16.35;;;9.30;;
69754;SDS011;57023;52.218;5.158;2023-04-15T04:52:10;15.20;;;8.65;;
69754;SDS011;57023;52.218;5.158;2023-04-15T04:54:35;15.68;;;8.95;;
69754;SDS011;57023;52.218;5.158;2023-04-15T04:57:01;13.77;;;9.10;;
69754;SDS011;57023;52.218;5.158;2023-04-15T04:59:26;14.70;;;9.20;;
69754;SDS011;57023;52.218;5.158;2023-04-15T05:01:55;15.35;;;8.50;;
69754;SDS011;57023;52.218;5.158;2023-04-15T05:04:20;13.63;;;8.45;;
69754;SDS011;57023;52.218;5.158;2023-04-15T05:06:46;13.73;;;8.88;;
69754;SDS011;57023;52.218;5.158;2023-04-15T05:09:11;14.07;;;8.80;;
69754;SDS011;57023;52.218;5.158;2023-04-15T05:11:36;16.38;;;8.80;;
69754;SDS011;57023;52.218;5.158;2023-04-15T05:14:03;14.98;;;9.05;;
69754;SDS011;57023;52.218;5.158;2023-04-15T05:16:28;14.13;;;8.43;;
69754;SDS011;57023;52.218;5.158;2023-04-15T05:18:53;13.85;;;8.77;;
69754;SDS011;57023;52.218;5.158;2023-04-15T05:21:19;12.60;;;8.20;;
69754;SDS011;57023;52.218;5.158;2023-04-15T05:23:44;15.48;;;9.57;;
69754;SDS011;57023;52.218;5.158;2023-04-15T05:26:10;14.93;;;9.32;;
69754;SDS011;57023;52.218;5.158;2023-04-15T05:28:35;16.30;;;8.88;;
69754;SDS011;57023;52.218;5.158;2023-04-15T05:31:04;15.25;;;8.85;;
69754;SDS011;57023;52.218;5.158;2023-04-15T05:33:30;17.35;;;8.93;;
69754;SDS011;57023;52.218;5.158;2023-04-15T05:35:55;15.70;;;9.10;;
69754;SDS011;57023;52.218;5.158;2023-04-15T05:38:20;15.35;;;9.15;;
69754;SDS011;57023;52.218;5.158;2023-04-15T05:40:47;14.85;;;8.75;;
69754;SDS011;57023;52.218;5.158;2023-04-15T05:43:12;15.60;;;9.30;;
69754;SDS011;57023;52.218;5.158;2023-04-15T05:45:37;15.52;;;9.90;;
69754;SDS011;57023;52.218;5.158;2023-04-15T05:48:03;14.70;;;9.75;;
69754;SDS011;57023;52.218;5.158;2023-04-15T05:50:28;15.40;;;9.55;;
69754;SDS011;57023;52.218;5.158;2023-04-15T05:52:53;19.25;;;10.20;;
69754;SDS011;57023;52.218;5.158;2023-04-15T05:55:19;17.40;;;9.80;;
69754;SDS011;57023;52.218;5.158;2023-04-15T05:57:45;17.60;;;10.73;;
69754;SDS011;57023;52.218;5.158;2023-04-15T06:00:10;16.25;;;9.50;;
69754;SDS011;57023;52.218;5.158;2023-04-15T06:02:37;16.45;;;9.95;;
69754;SDS011;57023;52.218;5.158;2023-04-15T06:05:02;16.27;;;9.93;;
69754;SDS011;57023;52.218;5.158;2023-04-15T06:07:28;15.95;;;9.52;;
69754;SDS011;57023;52.218;5.158;2023-04-15T06:09:53;17.05;;;9.07;;
69754;SDS011;57023;52.218;5.158;2023-04-15T06:12:18;16.52;;;9.77;;
69754;SDS011;57023;52.218;5.158;2023-04-15T06:14:44;15.90;;;9.90;;
69754;SDS011;57023;52.218;5.158;2023-04-15T06:17:09;16.05;;;10.23;;
69754;SDS011;57023;52.218;5.158;2023-04-15T06:19:34;15.50;;;10.13;;
69754;SDS011;57023;52.218;5.158;2023-04-15T06:22:03;17.17;;;10.18;;
69754;SDS011;57023;52.218;5.158;2023-04-15T06:26:57;16.77;;;10.50;;
69754;SDS011;57023;52.218;5.158;2023-04-15T06:29:22;17.88;;;11.35;;
69754;SDS011;57023;52.218;5.158;2023-04-15T06:31:47;18.13;;;10.50;;
69754;SDS011;57023;52.218;5.158;2023-04-15T06:34:13;16.90;;;10.60;;
69754;SDS011;57023;52.218;5.158;2023-04-15T06:36:38;15.75;;;10.40;;
69754;SDS011;57023;52.218;5.158;2023-04-15T06:39:03;17.85;;;11.52;;
69754;SDS011;57023;52.218;5.158;2023-04-15T06:41:29;16.30;;;10.73;;
69754;SDS011;57023;52.218;5.158;2023-04-15T06:43:54;18.25;;;10.70;;
69754;SDS011;57023;52.218;5.158;2023-04-15T06:46:19;17.67;;;10.95;;
69754;SDS011;57023;52.218;5.158;2023-04-15T06:48:46;17.52;;;10.60;;
69754;SDS011;57023;52.218;5.158;2023-04-15T06:51:12;15.90;;;10.88;;
69754;SDS011;57023;52.218;5.158;2023-04-15T06:53:37;20.05;;;11.07;;
69754;SDS011;57023;52.218;5.158;2023-04-15T06:58:31;17.45;;;10.98;;
69754;SDS011;57023;52.218;5.158;2023-04-15T07:00:56;17.77;;;10.68;;
69754;SDS011;57023;52.218;5.158;2023-04-15T07:03:22;17.95;;;11.32;;
69754;SDS011;57023;52.218;5.158;2023-04-15T07:05:47;20.02;;;11.30;;
69754;SDS011;57023;52.218;5.158;2023-04-15T07:08:12;17.15;;;10.77;;
69754;SDS011;57023;52.218;5.158;2023-04-15T07:10:38;18.77;;;10.63;;
69754;SDS011;57023;52.218;5.158;2023-04-15T07:13:03;17.38;;;10.80;;
69754;SDS011;57023;52.218;5.158;2023-04-15T07:15:29;15.75;;;9.48;;
69754;SDS011;57023;52.218;5.158;2023-04-15T07:17:55;15.02;;;9.50;;
69754;SDS011;57023;52.218;5.158;2023-04-15T07:20:20;15.38;;;9.75;;
69754;SDS011;57023;52.218;5.158;2023-04-15T07:22:45;14.25;;;8.55;;
69754;SDS011;57023;52.218;5.158;2023-04-15T07:25:11;14.05;;;8.85;;
69754;SDS011;57023;52.218;5.158;2023-04-15T07:27:36;15.38;;;9.82;;
69754;SDS011;57023;52.218;5.158;2023-04-15T07:30:01;15.63;;;9.50;;
69754;SDS011;57023;52.218;5.158;2023-04-15T07:32:27;15.00;;;9.40;;
69754;SDS011;57023;52.218;5.158;2023-04-15T07:34:52;15.15;;;8.90;;
69754;SDS011;57023;52.218;5.158;2023-04-15T07:37:18;12.43;;;8.35;;
69754;SDS011;57023;52.218;5.158;2023-04-15T07:39:43;13.25;;;7.47;;
69754;SDS011;57023;52.218;5.158;2023-04-15T07:42:09;12.32;;;7.85;;
69754;SDS011;57023;52.218;5.158;2023-04-15T07:44:34;14.05;;;7.65;;
69754;SDS011;57023;52.218;5.158;2023-04-15T07:47:00;10.63;;;7.43;;
69754;SDS011;57023;52.218;5.158;2023-04-15T07:49:26;12.52;;;7.32;;
69754;SDS011;57023;52.218;5.158;2023-04-15T07:51:51;10.73;;;7.07;;
69754;SDS011;57023;52.218;5.158;2023-04-15T07:54:17;12.35;;;7.22;;
69754;SDS011;57023;52.218;5.158;2023-04-15T07:56:42;11.10;;;7.43;;
69754;SDS011;57023;52.218;5.158;2023-04-15T07:59:07;12.45;;;7.65;;
69754;SDS011;57023;52.218;5.158;2023-04-15T08:01:33;13.05;;;7.70;;
69754;SDS011;57023;52.218;5.158;2023-04-15T08:03:59;10.60;;;7.10;;
69754;SDS011;57023;52.218;5.158;2023-04-15T08:06:24;11.50;;;7.43;;
69754;SDS011;57023;52.218;5.158;2023-04-15T08:08:49;11.57;;;7.53;;
69754;SDS011;57023;52.218;5.158;2023-04-15T08:11:15;11.18;;;7.60;;
69754;SDS011;57023;52.218;5.158;2023-04-15T08:13:41;11.02;;;7.60;;
69754;SDS011;57023;52.218;5.158;2023-04-15T08:16:19;12.30;;;7.72;;
69754;SDS011;57023;52.218;5.158;2023-04-15T08:18:47;11.88;;;7.38;;
69754;SDS011;57023;52.218;5.158;2023-04-15T08:21:13;12.68;;;7.82;;
69754;SDS011;57023;52.218;5.158;2023-04-15T08:23:39;10.27;;;7.40;;
69754;SDS011;57023;52.218;5.158;2023-04-15T08:26:04;11.20;;;7.13;;
69754;SDS011;57023;52.218;5.158;2023-04-15T08:28:29;10.88;;;7.15;;
69754;SDS011;57023;52.218;5.158;2023-04-15T08:30:55;10.35;;;7.15;;
69754;SDS011;57023;52.218;5.158;2023-04-15T08:33:21;10.65;;;6.80;;
69754;SDS011;57023;52.218;5.158;2023-04-15T08:35:47;10.65;;;7.07;;
69754;SDS011;57023;52.218;5.158;2023-04-15T08:38:13;9.82;;;6.18;;
69754;SDS011;57023;52.218;5.158;2023-04-15T08:40:44;9.25;;;5.90;;
69754;SDS011;57023;52.218;5.158;2023-04-15T08:43:20;10.88;;;5.95;;
69754;SDS011;57023;52.218;5.158;2023-04-15T08:45:48;9.02;;;5.82;;
69754;SDS011;57023;52.218;5.158;2023-04-15T08:48:15;10.70;;;5.70;;
69754;SDS011;57023;52.218;5.158;2023-04-15T08:50:41;7.90;;;4.93;;
69754;SDS011;57023;52.218;5.158;2023-04-15T08:53:07;8.00;;;5.30;;
69754;SDS011;57023;52.218;5.158;2023-04-15T08:55:33;7.85;;;5.00;;
69754;SDS011;57023;52.218;5.158;2023-04-15T08:58:00;7.32;;;5.00;;
69754;SDS011;57023;52.218;5.158;2023-04-15T09:00:26;8.13;;;4.75;;
69754;SDS011;57023;52.218;5.158;2023-04-15T09:02:53;7.33;;;4.97;;
69754;SDS011;57023;52.218;5.158;2023-04-15T09:05:20;8.23;;;5.38;;
69754;SDS011;57023;52.218;5.158;2023-04-15T09:07:46;7.88;;;5.03;;
69754;SDS011;57023;52.218;5.158;2023-04-15T09:10:12;10.02;;;5.57;;
69754;SDS011;57023;52.218;5.158;2023-04-15T09:12:38;7.65;;;4.55;;
69754;SDS011;57023;52.218;5.158;2023-04-15T09:15:03;8.48;;;5.10;;
69754;SDS011;57023;52.218;5.158;2023-04-15T09:17:32;7.88;;;4.80;;
69754;SDS011;57023;52.218;5.158;2023-04-15T09:20:12;7.72;;;4.28;;
69754;SDS011;57023;52.218;5.158;2023-04-15T09:22:48;7.78;;;4.93;;
69754;SDS011;57023;52.218;5.158;2023-04-15T09:27:59;8.50;;;4.75;;
69754;SDS011;57023;52.218;5.158;2023-04-15T09:30:28;8.13;;;4.40;;
69754;SDS011;57023;52.218;5.158;2023-04-15T09:35:20;6.85;;;3.83;;
69754;SDS011;57023;52.218;5.158;2023-04-15T09:37:47;6.00;;;3.78;;
69754;SDS011;57023;52.218;5.158;2023-04-15T09:40:13;6.25;;;4.13;;
69754;SDS011;57023;52.218;5.158;2023-04-15T09:42:54;6.63;;;3.53;;
69754;SDS011;57023;52.218;5.158;2023-04-15T09:45:20;5.00;;;3.50;;
69754;SDS011;57023;52.218;5.158;2023-04-15T09:47:46;5.43;;;3.53;;
69754;SDS011;57023;52.218;5.158;2023-04-15T09:50:11;6.28;;;3.78;;
69754;SDS011;57023;52.218;5.158;2023-04-15T09:52:41;5.70;;;3.80;;
69754;SDS011;57023;52.218;5.158;2023-04-15T09:55:07;7.32;;;4.50;;
69754;SDS011;57023;52.218;5.158;2023-04-15T09:57:36;5.82;;;4.20;;
69754;SDS011;57023;52.218;5.158;2023-04-15T10:00:03;5.20;;;3.60;;
69754;SDS011;57023;52.218;5.158;2023-04-15T10:02:32;5.88;;;3.30;;
69754;SDS011;57023;52.218;5.158;2023-04-15T10:04:58;5.63;;;3.92;;
69754;SDS011;57023;52.218;5.158;2023-04-15T10:07:24;5.88;;;3.60;;
69754;SDS011;57023;52.218;5.158;2023-04-15T10:09:50;6.60;;;4.70;;
69754;SDS011;57023;52.218;5.158;2023-04-15T10:12:16;8.82;;;5.60;;
69754;SDS011;57023;52.218;5.158;2023-04-15T10:14:41;6.38;;;4.43;;
69754;SDS011;57023;52.218;5.158;2023-04-15T10:17:07;6.78;;;5.13;;
69754;SDS011;57023;52.218;5.158;2023-04-15T10:19:36;9.18;;;6.78;;
69754;SDS011;57023;52.218;5.158;2023-04-15T10:22:02;6.87;;;4.60;;
69754;SDS011;57023;52.218;5.158;2023-04-15T10:24:27;7.03;;;4.80;;
69754;SDS011;57023;52.218;5.158;2023-04-15T10:26:52;8.25;;;5.25;;
69754;SDS011;57023;52.218;5.158;2023-04-15T10:29:18;6.60;;;4.88;;
69754;SDS011;57023;52.218;5.158;2023-04-15T10:31:44;7.50;;;5.03;;
69754;SDS011;57023;52.218;5.158;2023-04-15T10:34:10;8.15;;;5.55;;
69754;SDS011;57023;52.218;5.158;2023-04-15T10:36:36;8.35;;;5.18;;
69754;SDS011;57023;52.218;5.158;2023-04-15T10:39:01;8.00;;;5.47;;
69754;SDS011;57023;52.218;5.158;2023-04-15T10:41:27;7.60;;;4.97;;
69754;SDS011;57023;52.218;5.158;2023-04-15T10:46:33;7.45;;;5.00;;
69754;SDS011;57023;52.218;5.158;2023-04-15T10:49:09;8.15;;;5.22;;
69754;SDS011;57023;52.218;5.158;2023-04-15T10:51:37;6.80;;;5.10;;
69754;SDS011;57023;52.218;5.158;2023-04-15T10:54:07;8.57;;;5.72;;
69754;SDS011;57023;52.218;5.158;2023-04-15T10:56:44;7.72;;;5.25;;
69754;SDS011;57023;52.218;5.158;2023-04-15T10:59:11;7.55;;;5.38;;
69754;SDS011;57023;52.218;5.158;2023-04-15T11:01:49;8.38;;;5.28;;
69754;SDS011;57023;52.218;5.158;2023-04-15T11:12:41;7.65;;;5.25;;
69754;SDS011;57023;52.218;5.158;2023-04-15T11:17:57;11.18;;;5.07;;
69754;SDS011;57023;52.218;5.158;2023-04-15T11:20:23;6.90;;;4.72;;
69754;SDS011;57023;52.218;5.158;2023-04-15T11:22:50;6.97;;;4.40;;
69754;SDS011;57023;52.218;5.158;2023-04-15T11:25:32;6.10;;;3.70;;
69754;SDS011;57023;52.218;5.158;2023-04-15T11:27:59;5.25;;;3.47;;
69754;SDS011;57023;52.218;5.158;2023-04-15T11:30:26;5.07;;;3.47;;
69754;SDS011;57023;52.218;5.158;2023-04-15T11:32:53;5.47;;;3.17;;
69754;SDS011;57023;52.218;5.158;2023-04-15T11:35:21;5.22;;;3.30;;
69754;SDS011;57023;52.218;5.158;2023-04-15T11:37:47;7.13;;;3.40;;
69754;SDS011;57023;52.218;5.158;2023-04-15T11:40:14;6.13;;;3.80;;
69754;SDS011;57023;52.218;5.158;2023-04-15T11:43:11;5.97;;;3.35;;
69754;SDS011;57023;52.218;5.158;2023-04-15T11:45:36;6.88;;;4.15;;
69754;SDS011;57023;52.218;5.158;2023-04-15T11:48:12;6.05;;;3.58;;
69754;SDS011;57023;52.218;5.158;2023-04-15T11:50:38;6.20;;;3.88;;
69754;SDS011;57023;52.218;5.158;2023-04-15T11:53:07;6.68;;;3.60;;
69754;SDS011;57023;52.218;5.158;2023-04-15T12:00:44;5.93;;;3.40;;
69754;SDS011;57023;52.218;5.158;2023-04-15T12:03:12;5.38;;;3.67;;
69754;SDS011;57023;52.218;5.158;2023-04-15T12:08:48;6.82;;;3.78;;
69754;SDS011;57023;52.218;5.158;2023-04-15T12:13:54;5.93;;;3.78;;
69754;SDS011;57023;52.218;5.158;2023-04-15T12:16:21;6.97;;;3.85;;
69754;SDS011;57023;52.218;5.158;2023-04-15T12:18:50;7.68;;;3.60;;
69754;SDS011;57023;52.218;5.158;2023-04-15T12:21:23;5.55;;;3.80;;
69754;SDS011;57023;52.218;5.158;2023-04-15T12:26:16;7.65;;;3.67;;
69754;SDS011;57023;52.218;5.158;2023-04-15T12:28:43;6.72;;;3.45;;
69754;SDS011;57023;52.218;5.158;2023-04-15T12:31:08;5.57;;;3.42;;
69754;SDS011;57023;52.218;5.158;2023-04-15T12:33:35;5.25;;;3.47;;
69754;SDS011;57023;52.218;5.158;2023-04-15T12:36:00;5.70;;;3.50;;
69754;SDS011;57023;52.218;5.158;2023-04-15T12:38:26;5.40;;;3.38;;
69754;SDS011;57023;52.218;5.158;2023-04-15T12:40:53;7.18;;;4.07;;
69754;SDS011;57023;52.218;5.158;2023-04-15T12:43:18;5.80;;;4.03;;
69754;SDS011;57023;52.218;5.158;2023-04-15T12:45:43;6.03;;;3.60;;
69754;SDS011;57023;52.218;5.158;2023-04-15T12:48:09;6.07;;;3.33;;
69754;SDS011;57023;52.218;5.158;2023-04-15T12:50:34;6.45;;;3.30;;
69754;SDS011;57023;52.218;5.158;2023-04-15T12:53:00;7.38;;;3.60;;
69754;SDS011;57023;52.218;5.158;2023-04-15T12:55:27;6.20;;;3.22;;
69754;SDS011;57023;52.218;5.158;2023-04-15T12:57:52;6.22;;;3.00;;
69754;SDS011;57023;52.218;5.158;2023-04-15T13:00:18;5.90;;;2.80;;
69754;SDS011;57023;52.218;5.158;2023-04-15T13:02:43;5.72;;;2.92;;
69754;SDS011;57023;52.218;5.158;2023-04-15T13:05:08;6.03;;;3.13;;
69754;SDS011;57023;52.218;5.158;2023-04-15T13:07:34;7.35;;;3.40;;
69754;SDS011;57023;52.218;5.158;2023-04-15T13:09:59;5.63;;;2.90;;
69754;SDS011;57023;52.218;5.158;2023-04-15T13:12:25;6.00;;;2.85;;
69754;SDS011;57023;52.218;5.158;2023-04-15T13:14:51;9.45;;;3.10;;
69754;SDS011;57023;52.218;5.158;2023-04-15T13:17:19;5.55;;;2.67;;
69754;SDS011;57023;52.218;5.158;2023-04-15T13:19:45;5.05;;;2.70;;
69754;SDS011;57023;52.218;5.158;2023-04-15T13:22:11;4.75;;;2.60;;
69754;SDS011;57023;52.218;5.158;2023-04-15T13:24:36;7.53;;;2.70;;
69754;SDS011;57023;52.218;5.158;2023-04-15T13:27:03;6.38;;;2.60;;
69754;SDS011;57023;52.218;5.158;2023-04-15T13:29:28;5.20;;;2.40;;
69754;SDS011;57023;52.218;5.158;2023-04-15T13:31:54;5.72;;;2.33;;
69754;SDS011;57023;52.218;5.158;2023-04-15T13:34:19;4.32;;;2.20;;
69754;SDS011;57023;52.218;5.158;2023-04-15T13:36:45;4.18;;;2.30;;
69754;SDS011;57023;52.218;5.158;2023-04-15T13:39:11;4.22;;;2.20;;
69754;SDS011;57023;52.218;5.158;2023-04-15T13:41:36;4.45;;;2.25;;
69754;SDS011;57023;52.218;5.158;2023-04-15T13:44:02;5.25;;;2.35;;
69754;SDS011;57023;52.218;5.158;2023-04-15T13:46:27;4.50;;;2.30;;
69754;SDS011;57023;52.218;5.158;2023-04-15T13:48:52;5.10;;;2.40;;
69754;SDS011;57023;52.218;5.158;2023-04-15T13:51:17;4.93;;;2.10;;
69754;SDS011;57023;52.218;5.158;2023-04-15T13:53:43;6.15;;;2.25;;
69754;SDS011;57023;52.218;5.158;2023-04-15T13:56:08;4.80;;;2.40;;
69754;SDS011;57023;52.218;5.158;2023-04-15T13:58:34;4.72;;;2.28;;
69754;SDS011;57023;52.218;5.158;2023-04-15T14:01:01;3.65;;;2.10;;
69754;SDS011;57023;52.218;5.158;2023-04-15T14:03:27;4.68;;;2.58;;
69754;SDS011;57023;52.218;5.158;2023-04-15T14:05:52;4.20;;;2.35;;
69754;SDS011;57023;52.218;5.158;2023-04-15T14:10:45;5.18;;;2.50;;
69754;SDS011;57023;52.218;5.158;2023-04-15T14:13:12;7.45;;;2.35;;
69754;SDS011;57023;52.218;5.158;2023-04-15T14:15:39;6.40;;;2.50;;
69754;SDS011;57023;52.218;5.158;2023-04-15T14:18:04;5.05;;;2.33;;
69754;SDS011;57023;52.218;5.158;2023-04-15T14:20:29;7.15;;;2.53;;
69754;SDS011;57023;52.218;5.158;2023-04-15T14:22:55;6.10;;;2.38;;
69754;SDS011;57023;52.218;5.158;2023-04-15T14:25:20;7.47;;;2.55;;
69754;SDS011;57023;52.218;5.158;2023-04-15T14:27:45;4.72;;;2.50;;
69754;SDS011;57023;52.218;5.158;2023-04-15T14:30:11;4.63;;;2.47;;
69754;SDS011;57023;52.218;5.158;2023-04-15T14:32:37;5.72;;;2.92;;
69754;SDS011;57023;52.218;5.158;2023-04-15T14:35:02;6.85;;;2.53;;
69754;SDS011;57023;52.218;5.158;2023-04-15T14:37:28;6.57;;;2.30;;
69754;SDS011;57023;52.218;5.158;2023-04-15T14:39:53;4.78;;;2.30;;
69754;SDS011;57023;52.218;5.158;2023-04-15T14:42:21;4.57;;;2.30;;
69754;SDS011;57023;52.218;5.158;2023-04-15T14:44:46;3.83;;;1.90;;
69754;SDS011;57023;52.218;5.158;2023-04-15T14:47:11;4.47;;;2.20;;
69754;SDS011;57023;52.218;5.158;2023-04-15T14:49:37;5.38;;;2.63;;
69754;SDS011;57023;52.218;5.158;2023-04-15T14:52:04;6.78;;;2.47;;
69754;SDS011;57023;52.218;5.158;2023-04-15T14:54:29;7.07;;;2.80;;
69754;SDS011;57023;52.218;5.158;2023-04-15T14:56:55;7.13;;;2.70;;
69754;SDS011;57023;52.218;5.158;2023-04-15T14:59:21;5.13;;;2.28;;
69754;SDS011;57023;52.218;5.158;2023-04-15T15:01:46;8.85;;;2.80;;
69754;SDS011;57023;52.218;5.158;2023-04-15T15:04:12;5.07;;;2.50;;
69754;SDS011;57023;52.218;5.158;2023-04-15T15:06:37;6.57;;;2.42;;
69754;SDS011;57023;52.218;5.158;2023-04-15T15:09:03;9.98;;;2.70;;
69754;SDS011;57023;52.218;5.158;2023-04-15T15:11:29;6.25;;;2.40;;
69754;SDS011;57023;52.218;5.158;2023-04-15T15:13:54;7.18;;;2.20;;